createdAt,value
2019-01-08T00:01:49.680Z,21.33
2019-01-08T00:04:20.010Z,24.45
2019-01-08T00:06:50.339Z,20.40
2019-01-08T00:09:20.651Z,19.17
2019-01-08T00:11:51.623Z,24.10
2019-01-08T00:14:21.928Z,22.75
2019-01-08T00:16:52.215Z,17.10
2019-01-08T00:19:22.544Z,19.57
2019-01-08T00:21:52.892Z,25.68
2019-01-08T00:24:23.195Z,24.07
2019-01-08T00:26:53.591Z,16.52
2019-01-08T00:29:23.937Z,23.02
2019-01-08T00:31:54.274Z,22.30
2019-01-08T00:34:24.599Z,24.75
2019-01-08T00:36:54.934Z,24.85
2019-01-08T00:39:25.565Z,29.63
2019-01-08T00:41:56.045Z,21.33
2019-01-08T00:44:26.403Z,24.00
2019-01-08T00:46:57.026Z,23.62
2019-01-08T00:49:27.682Z,21.23
2019-01-08T00:51:58.018Z,20.37
2019-01-08T00:54:28.318Z,17.05
2019-01-08T00:56:58.683Z,22.13
2019-01-08T00:59:29.664Z,21.25
2019-01-08T01:02:00.004Z,26.30
2019-01-08T01:04:30.326Z,22.27
2019-01-08T01:07:00.659Z,17.87
2019-01-08T01:09:30.972Z,23.20
2019-01-08T01:12:01.343Z,24.57
2019-01-08T01:14:31.622Z,21.10
2019-01-08T01:17:01.964Z,17.15
2019-01-08T01:19:32.334Z,26.30
2019-01-08T01:22:02.732Z,19.75
2019-01-08T01:24:33.002Z,22.25
2019-01-08T01:27:04.357Z,19.23
2019-01-08T01:29:34.844Z,18.77
2019-01-08T01:32:05.148Z,18.10
2019-01-08T01:34:35.518Z,23.90
2019-01-08T01:37:05.870Z,22.22
2019-01-08T01:39:36.203Z,23.95
2019-01-08T01:42:06.601Z,23.83
2019-01-08T01:44:36.948Z,18.73
2019-01-08T01:47:07.314Z,22.48
2019-01-08T01:49:37.598Z,21.75
2019-01-08T01:52:08.107Z,16.80
2019-01-08T01:54:38.455Z,17.40
2019-01-08T01:57:08.787Z,21.20
2019-01-08T01:59:39.086Z,19.52
2019-01-08T02:02:09.453Z,14.25
2019-01-08T02:04:39.739Z,24.65
2019-01-08T02:07:10.164Z,21.07
2019-01-08T02:09:40.852Z,18.02
2019-01-08T02:12:11.664Z,17.70
2019-01-08T02:14:41.962Z,15.28
2019-01-08T02:17:12.390Z,17.32
2019-01-08T02:19:43.636Z,19.70
2019-01-08T02:22:14.002Z,19.02
2019-01-08T02:24:44.292Z,18.35
2019-01-08T02:27:14.958Z,15.08
2019-01-08T02:29:45.229Z,15.58
2019-01-08T02:32:15.582Z,18.23
2019-01-08T02:34:46.679Z,18.62
2019-01-08T02:37:17.039Z,16.40
2019-01-08T02:39:47.368Z,13.85
2019-01-08T02:42:17.702Z,18.35
2019-01-08T02:44:48.416Z,26.17
2019-01-08T02:47:18.936Z,23.77
2019-01-08T02:49:49.271Z,17.65
2019-01-08T02:52:20.750Z,14.85
2019-01-08T02:54:51.153Z,18.27
2019-01-08T02:57:22.469Z,18.80
2019-01-08T02:59:53.163Z,17.62
2019-01-08T03:02:23.468Z,24.55
2019-01-08T03:04:53.794Z,20.05
2019-01-08T03:07:24.229Z,22.25
2019-01-08T03:09:54.799Z,23.87
2019-01-08T03:12:25.825Z,18.10
2019-01-08T03:14:56.179Z,23.20
2019-01-08T03:17:28.065Z,24.77
2019-01-08T03:19:58.402Z,21.10
2019-01-08T03:22:29.170Z,12.85
2019-01-08T03:24:59.527Z,9.75
2019-01-08T03:27:29.857Z,7.00
2019-01-08T03:30:00.263Z,14.83
2019-01-08T03:32:31.776Z,18.20
2019-01-08T03:35:02.068Z,10.28
2019-01-08T03:37:32.379Z,13.20
2019-01-08T03:40:02.723Z,14.85
2019-01-08T03:42:33.043Z,18.12
2019-01-08T03:45:03.701Z,18.27
2019-01-08T03:47:34.062Z,16.23
2019-01-08T03:50:05.083Z,18.92
2019-01-08T03:52:35.352Z,19.37
2019-01-08T03:55:05.793Z,21.85
2019-01-08T03:57:36.416Z,18.60
2019-01-08T04:00:08.635Z,16.27
2019-01-08T04:02:39.195Z,17.10
2019-01-08T04:05:09.693Z,14.18
2019-01-08T04:07:40.164Z,16.20
2019-01-08T04:10:10.778Z,19.40
2019-01-08T04:12:41.565Z,19.40
2019-01-08T04:15:12.911Z,18.77
2019-01-08T04:17:43.219Z,11.03
2019-01-08T04:20:13.551Z,15.98
2019-01-08T04:22:43.850Z,7.95
2019-01-08T04:25:14.209Z,8.83
2019-01-08T04:27:44.648Z,8.08
2019-01-08T04:30:14.943Z,9.43
2019-01-08T04:32:45.231Z,9.58
2019-01-08T04:35:15.583Z,11.05
2019-01-08T04:37:46.226Z,12.63
2019-01-08T04:40:16.553Z,13.05
2019-01-08T04:42:46.899Z,12.75
2019-01-08T04:45:17.200Z,14.03
2019-01-08T04:47:47.521Z,17.85
2019-01-08T04:50:18.148Z,14.03
2019-01-08T04:52:48.447Z,14.35
2019-01-08T04:55:18.854Z,13.00
2019-01-08T04:57:49.210Z,16.87
2019-01-08T05:00:19.558Z,15.08
2019-01-08T05:02:49.959Z,19.15
2019-01-08T05:05:20.299Z,17.17
2019-01-08T05:07:50.596Z,18.37
2019-01-08T05:10:20.949Z,16.37
2019-01-08T05:12:51.810Z,18.32
2019-01-08T05:15:22.706Z,19.67
2019-01-08T05:17:53.033Z,18.85
2019-01-08T05:20:23.383Z,10.48
2019-01-08T05:22:54.014Z,15.20
2019-01-08T05:25:24.425Z,12.40
2019-01-08T05:27:54.726Z,13.25
2019-01-08T05:30:25.068Z,9.18
2019-01-08T05:32:55.422Z,10.75
2019-01-08T05:35:25.712Z,9.95
2019-01-08T05:37:56.022Z,8.90
2019-01-08T05:40:26.289Z,11.80
2019-01-08T05:42:56.606Z,19.05
2019-01-08T05:45:26.961Z,21.60
2019-01-08T05:47:57.233Z,18.30
2019-01-08T05:50:27.905Z,25.08
2019-01-08T05:52:58.175Z,17.23
2019-01-08T05:55:28.530Z,19.12
2019-01-08T05:57:58.848Z,20.48
2019-01-08T06:00:29.170Z,23.87
2019-01-08T06:02:59.543Z,22.17
2019-01-08T06:05:29.991Z,26.27
2019-01-08T06:08:00.331Z,15.83
2019-01-08T06:10:30.593Z,21.37
2019-01-08T06:13:00.951Z,22.20
2019-01-08T06:15:31.310Z,19.57
2019-01-08T06:18:01.656Z,22.93
2019-01-08T06:20:31.968Z,18.62
2019-01-08T06:23:03.056Z,15.68
2019-01-08T06:25:33.672Z,20.02
2019-01-08T06:28:04.187Z,18.92
2019-01-08T06:30:34.579Z,23.35
2019-01-08T06:33:05.611Z,25.20
2019-01-08T06:35:35.948Z,26.35
2019-01-08T06:38:06.390Z,31.60
2019-01-08T06:40:36.721Z,22.87
2019-01-08T06:43:07.369Z,22.73
2019-01-08T06:45:37.741Z,25.55
2019-01-08T06:48:08.104Z,23.10
2019-01-08T06:50:38.603Z,20.37
2019-01-08T06:53:08.936Z,20.27
2019-01-08T06:55:39.588Z,20.85
2019-01-08T06:58:09.878Z,30.27
2019-01-08T07:00:40.560Z,26.55
2019-01-08T07:03:10.832Z,24.02
2019-01-08T07:05:41.203Z,23.40
2019-01-08T07:08:11.511Z,27.93
2019-01-08T07:10:42.135Z,29.35
2019-01-08T07:13:12.445Z,33.83
2019-01-08T07:15:43.132Z,34.78
2019-01-08T07:18:13.506Z,25.88
2019-01-08T07:20:43.840Z,26.87
2019-01-08T07:23:15.370Z,37.83
2019-01-08T07:25:45.709Z,31.05
2019-01-08T07:28:16.019Z,25.52
2019-01-08T07:30:46.375Z,36.70
2019-01-08T07:33:16.666Z,35.40
2019-01-08T07:35:47.016Z,27.48
2019-01-08T07:38:17.319Z,33.65
2019-01-08T07:40:47.651Z,32.13
2019-01-08T07:43:18.274Z,36.17
2019-01-08T07:45:48.687Z,35.65
2019-01-08T07:48:19.175Z,28.40
2019-01-08T07:50:49.458Z,32.28
2019-01-08T07:53:19.814Z,31.95
2019-01-08T07:55:50.295Z,34.58
2019-01-08T07:58:20.998Z,33.30
2019-01-08T08:00:51.895Z,27.80
2019-01-08T08:03:22.549Z,29.77
2019-01-08T08:05:52.818Z,33.65
2019-01-08T08:08:23.158Z,31.77
2019-01-08T08:10:53.510Z,32.13
2019-01-08T08:13:23.883Z,37.88
2019-01-08T08:15:54.234Z,30.90
2019-01-08T08:18:24.581Z,28.55
2019-01-08T08:20:54.887Z,28.17
2019-01-08T08:23:26.547Z,27.85
2019-01-08T08:25:56.964Z,26.97
2019-01-08T08:28:27.314Z,30.12
2019-01-08T08:30:58.859Z,31.70
2019-01-08T08:33:29.583Z,31.90
2019-01-08T08:35:59.891Z,27.05
2019-01-08T08:38:30.274Z,30.25
2019-01-08T08:41:00.555Z,26.87
2019-01-08T08:43:31.135Z,29.67
2019-01-08T08:46:01.395Z,23.77
2019-01-08T08:48:31.678Z,26.62
2019-01-08T08:51:01.977Z,24.00
2019-01-08T08:53:32.294Z,23.47
2019-01-08T08:56:02.841Z,29.80
2019-01-08T08:58:33.130Z,29.20
2019-01-08T09:01:07.145Z,26.10
2019-01-08T09:03:36.063Z,29.63
2019-01-08T09:06:06.370Z,22.65
2019-01-08T09:08:37.011Z,27.70
2019-01-08T09:11:07.331Z,26.65
2019-01-08T09:13:37.620Z,26.40
2019-01-08T09:16:08.233Z,22.77
2019-01-08T09:18:38.598Z,31.93
2019-01-08T09:21:08.912Z,21.90
2019-01-08T09:23:39.627Z,24.52
2019-01-08T09:26:10.315Z,20.23
2019-01-08T09:28:40.618Z,22.87
2019-01-08T09:31:15.422Z,22.37
2019-01-08T09:33:43.016Z,30.08
2019-01-08T09:36:13.312Z,21.85
2019-01-08T09:38:43.645Z,24.95
2019-01-08T09:41:14.107Z,30.50
2019-01-08T09:43:44.368Z,26.42
2019-01-08T09:46:14.742Z,26.30
2019-01-08T09:48:45.877Z,24.63
2019-01-08T09:51:16.328Z,22.75
2019-01-08T09:53:46.599Z,21.82
2019-01-08T09:56:16.935Z,30.15
2019-01-08T09:58:47.588Z,27.00
2019-01-08T10:01:23.886Z,32.03
2019-01-08T10:03:50.299Z,28.20
2019-01-08T10:06:20.600Z,25.10
2019-01-08T10:08:50.904Z,30.45
2019-01-08T10:11:21.316Z,27.73
2019-01-08T10:13:51.661Z,23.32
2019-01-08T10:16:21.991Z,24.20
2019-01-08T10:18:52.307Z,33.33
2019-01-08T10:21:22.648Z,23.32
2019-01-08T10:23:54.436Z,27.93
2019-01-08T10:26:27.012Z,25.15
2019-01-08T10:28:57.311Z,21.65
2019-01-08T10:31:32.350Z,20.95
2019-01-08T10:33:59.678Z,25.82
2019-01-08T10:36:30.156Z,24.37
2019-01-08T10:39:00.435Z,30.02
2019-01-08T10:41:30.888Z,25.52
2019-01-08T10:44:01.175Z,19.27
2019-01-08T10:46:37.405Z,32.38
2019-01-08T10:49:04.189Z,22.98
2019-01-08T10:51:34.541Z,27.10
2019-01-08T10:54:04.903Z,24.67
2019-01-08T10:56:35.279Z,26.73
2019-01-08T10:59:08.805Z,25.37
2019-01-08T11:01:40.784Z,23.92
2019-01-08T11:04:11.181Z,31.07
2019-01-08T11:06:41.485Z,21.62
2019-01-08T11:09:11.863Z,25.17
2019-01-08T11:11:42.251Z,22.67
2019-01-08T11:14:12.554Z,23.00
2019-01-08T11:16:42.862Z,22.05
2019-01-08T11:19:13.488Z,24.07
2019-01-08T11:21:44.147Z,19.92
2019-01-08T11:24:14.833Z,22.55
2019-01-08T11:26:45.205Z,19.48
2019-01-08T11:29:15.527Z,21.55
2019-01-08T11:31:48.991Z,17.82
2019-01-08T11:34:17.892Z,19.70
2019-01-08T11:36:48.302Z,19.90
2019-01-08T11:39:18.643Z,21.27
2019-01-08T11:41:48.967Z,24.82
2019-01-08T11:44:19.308Z,21.35
2019-01-08T11:46:49.913Z,21.60
2019-01-08T11:49:20.797Z,21.90
2019-01-08T11:51:54.156Z,19.90
2019-01-08T11:54:24.521Z,17.57
2019-01-08T11:56:54.950Z,23.02
2019-01-08T11:59:25.448Z,22.65
2019-01-08T12:01:57.565Z,33.15
2019-01-08T12:04:28.233Z,22.15
2019-01-08T12:06:58.565Z,22.98
2019-01-08T12:09:29.067Z,21.35
2019-01-08T12:12:00.592Z,23.65
2019-01-08T12:14:31.056Z,17.45
2019-01-08T12:17:01.441Z,23.38
2019-01-08T12:19:31.967Z,19.60
2019-01-08T12:22:04.351Z,20.95
2019-01-08T12:24:35.102Z,17.25
2019-01-08T12:27:05.534Z,20.43
2019-01-08T12:29:35.984Z,24.25
2019-01-08T12:32:07.317Z,20.35
2019-01-08T12:34:37.778Z,17.92
2019-01-08T12:37:08.108Z,21.27
2019-01-08T12:39:38.571Z,17.10
2019-01-08T12:42:09.059Z,17.52
2019-01-08T12:44:39.475Z,18.27
2019-01-08T12:47:10.833Z,14.28
2019-01-08T12:49:41.185Z,16.05
2019-01-08T12:52:12.651Z,23.73
2019-01-08T12:54:43.817Z,20.60
2019-01-08T12:57:14.246Z,18.55
2019-01-08T12:59:44.712Z,22.45
2019-01-08T13:02:15.359Z,22.40
2019-01-08T13:04:45.678Z,15.85
2019-01-08T13:07:16.089Z,19.45
2019-01-08T13:09:46.647Z,20.85
2019-01-08T13:12:17.056Z,21.60
2019-01-08T13:14:47.340Z,17.75
2019-01-08T13:17:17.724Z,17.52
2019-01-08T13:19:48.763Z,21.30
2019-01-08T13:22:19.145Z,24.10
2019-01-08T13:24:51.371Z,21.62
2019-01-08T13:27:21.784Z,21.52
2019-01-08T13:29:52.079Z,23.07
2019-01-08T13:32:23.248Z,18.12
2019-01-08T13:34:53.891Z,16.75
2019-01-08T13:37:24.254Z,23.00
2019-01-08T13:39:55.450Z,16.73
2019-01-08T13:42:27.006Z,20.30
2019-01-08T13:44:58.051Z,12.82
2019-01-08T13:47:28.341Z,19.10
2019-01-08T13:49:58.771Z,16.15
2019-01-08T13:52:29.181Z,16.45
2019-01-08T13:55:01.196Z,18.90
2019-01-08T13:57:33.036Z,15.88
2019-01-08T14:00:03.651Z,18.35
2019-01-08T14:02:35.044Z,21.93
2019-01-08T14:05:06.331Z,18.55
2019-01-08T14:07:36.994Z,18.12
2019-01-08T14:10:07.798Z,21.17
2019-01-08T14:12:39.316Z,20.55
2019-01-08T14:15:09.972Z,18.10
2019-01-08T14:17:40.359Z,15.55
2019-01-08T14:20:10.865Z,15.65
2019-01-08T14:22:41.251Z,16.07
2019-01-08T14:25:12.528Z,24.12
2019-01-08T14:27:46.259Z,16.25
2019-01-08T14:30:16.596Z,18.48
2019-01-08T14:32:47.040Z,19.52
2019-01-08T14:35:17.961Z,25.65
2019-01-08T14:37:48.514Z,14.13
2019-01-08T14:40:19.164Z,14.35
2019-01-08T14:42:49.562Z,24.25
2019-01-08T14:45:20.103Z,16.00
2019-01-08T14:47:50.449Z,15.40
2019-01-08T14:50:20.887Z,17.48
2019-01-08T14:52:51.305Z,14.70
2019-01-08T14:55:21.643Z,14.33
2019-01-08T14:57:53.820Z,12.93
2019-01-08T15:00:24.319Z,13.65
2019-01-08T15:02:55.243Z,16.67
2019-01-08T15:05:25.914Z,16.77
2019-01-08T15:07:56.292Z,17.45
2019-01-08T15:10:26.658Z,14.40
2019-01-08T15:12:57.027Z,15.78
2019-01-08T15:15:27.471Z,18.02
2019-01-08T15:17:58.162Z,16.85
2019-01-08T15:20:29.168Z,16.85
2019-01-08T15:22:59.586Z,14.15
2019-01-08T15:25:30.679Z,15.05
2019-01-08T15:28:00.968Z,21.02
2019-01-08T15:30:31.383Z,29.00
2019-01-08T15:33:02.042Z,23.35
2019-01-08T15:35:33.900Z,23.10
2019-01-08T15:38:04.254Z,101.00
2019-01-08T15:40:35.146Z,39.20
2019-01-08T15:43:05.991Z,77.45
2019-01-08T15:45:36.412Z,56.77
2019-01-08T15:48:06.907Z,61.02
2019-01-08T15:50:37.309Z,34.30
2019-01-08T15:53:07.743Z,25.25
2019-01-08T15:55:38.229Z,47.48
2019-01-08T15:58:08.615Z,30.30
2019-01-08T16:00:39.094Z,34.00
2019-01-08T16:03:09.419Z,29.70
2019-01-08T16:05:39.883Z,30.82
2019-01-08T16:08:10.328Z,21.48
2019-01-08T16:10:42.780Z,29.20
2019-01-08T16:13:15.014Z,25.15
2019-01-08T16:15:45.327Z,30.23
2019-01-08T16:18:15.682Z,21.80
2019-01-08T16:20:46.822Z,24.55
2019-01-08T16:23:19.684Z,23.90
2019-01-08T16:25:50.090Z,30.80
2019-01-08T16:28:20.470Z,17.23
2019-01-08T16:30:52.180Z,28.42
2019-01-08T16:33:22.667Z,18.30
2019-01-08T16:35:53.082Z,19.95
2019-01-08T16:38:23.559Z,18.17
2019-01-08T16:40:54.670Z,19.15
2019-01-08T16:43:25.046Z,17.65
2019-01-08T16:45:55.392Z,14.33
2019-01-08T16:48:25.724Z,23.18
2019-01-08T16:50:56.172Z,23.32
2019-01-08T16:53:26.633Z,21.75
2019-01-08T16:55:56.987Z,25.95
2019-01-08T16:58:28.274Z,15.25
2019-01-08T17:00:58.746Z,16.23
2019-01-08T17:03:29.147Z,17.07
2019-01-08T17:05:59.552Z,18.15
2019-01-08T17:08:29.958Z,20.27
2019-01-08T17:11:00.391Z,18.87
2019-01-08T17:13:30.726Z,24.57
2019-01-08T17:16:01.426Z,17.20
2019-01-08T17:18:32.142Z,23.45
2019-01-08T17:21:02.624Z,20.62
2019-01-08T17:23:32.977Z,22.05
2019-01-08T17:26:03.402Z,17.37
2019-01-08T17:28:33.779Z,22.05
2019-01-08T17:31:04.241Z,19.25
2019-01-08T17:33:36.017Z,17.12
2019-01-08T17:36:06.367Z,17.20
2019-01-08T17:38:36.674Z,14.68
2019-01-08T17:41:10.351Z,20.45
2019-01-08T17:43:41.156Z,17.12
2019-01-08T17:46:11.667Z,20.43
2019-01-08T17:48:42.062Z,13.85
2019-01-08T17:51:12.391Z,19.05
2019-01-08T17:53:42.749Z,20.55
2019-01-08T17:56:13.172Z,24.02
2019-01-08T17:58:48.337Z,22.22
2019-01-08T18:01:31.380Z,21.55
2019-01-08T18:04:01.823Z,21.50
2019-01-08T18:06:32.155Z,13.70
2019-01-08T18:09:02.508Z,21.37
2019-01-08T18:11:33.947Z,23.57
2019-01-08T18:14:04.428Z,16.35
2019-01-08T18:16:35.665Z,19.48
2019-01-08T18:19:06.028Z,17.42
2019-01-08T18:21:36.383Z,55.03
2019-01-08T18:24:06.819Z,17.57
2019-01-08T18:26:37.249Z,18.70
2019-01-08T18:29:07.697Z,18.95
2019-01-08T18:31:38.205Z,11.15
2019-01-08T18:34:08.646Z,14.50
2019-01-08T18:36:39.111Z,14.98
2019-01-08T18:39:09.483Z,18.35
2019-01-08T18:41:40.440Z,12.68
2019-01-08T18:44:10.962Z,16.20
2019-01-08T18:46:41.387Z,15.80
2019-01-08T18:49:11.787Z,20.35
2019-01-08T18:51:42.100Z,18.10
2019-01-08T18:54:12.472Z,15.72
2019-01-08T18:56:42.902Z,19.75
2019-01-08T18:59:13.242Z,22.00
2019-01-08T19:01:43.683Z,24.15
2019-01-08T19:04:15.585Z,22.65
2019-01-08T19:06:46.014Z,19.20
2019-01-08T19:09:30.442Z,23.57
2019-01-08T19:12:00.869Z,24.55
2019-01-08T19:14:41.262Z,19.70
2019-01-08T19:17:11.727Z,16.25
2019-01-08T19:19:42.558Z,18.17
2019-01-08T19:22:13.141Z,19.30
2019-01-08T19:24:43.678Z,14.00
2019-01-08T19:27:14.014Z,11.93
2019-01-08T19:29:44.493Z,13.98
2019-01-08T19:32:14.959Z,19.25
2019-01-08T19:34:45.371Z,17.12
2019-01-08T19:37:15.700Z,12.45
2019-01-08T19:39:47.215Z,10.85
2019-01-08T19:42:17.719Z,15.72
2019-01-08T19:44:48.091Z,12.93
2019-01-08T19:47:18.714Z,17.98
2019-01-08T19:49:49.076Z,15.75
2019-01-08T19:52:19.331Z,16.42
2019-01-08T19:54:50.376Z,15.28
2019-01-08T19:57:20.708Z,14.50
2019-01-08T19:59:51.062Z,19.62
2019-01-08T20:02:22.094Z,19.12
2019-01-08T20:04:52.473Z,23.85
2019-01-08T20:07:22.882Z,20.05
2019-01-08T20:09:53.948Z,23.00
2019-01-08T20:12:24.292Z,13.58
2019-01-08T20:14:55.584Z,22.02
2019-01-08T20:17:26.616Z,23.27
2019-01-08T20:19:57.063Z,17.67
2019-01-08T20:22:27.731Z,21.05
2019-01-08T20:24:58.187Z,19.25
2019-01-08T20:27:28.536Z,17.75
2019-01-08T20:29:59.107Z,21.33
2019-01-08T20:32:29.571Z,18.27
2019-01-08T20:34:59.990Z,24.60
2019-01-08T20:37:30.436Z,25.95
2019-01-08T20:40:01.569Z,20.27
2019-01-08T20:42:33.661Z,24.00
2019-01-08T20:45:05.410Z,17.37
2019-01-08T20:47:36.478Z,22.37
2019-01-08T20:50:08.096Z,15.25
2019-01-08T20:52:38.424Z,11.83
2019-01-08T20:55:08.819Z,15.58
2019-01-08T20:57:49.591Z,18.07
2019-01-08T21:00:21.581Z,15.90
2019-01-08T21:02:51.911Z,15.98
2019-01-08T21:05:22.275Z,16.75
2019-01-08T21:07:53.411Z,15.93
2019-01-08T21:10:25.531Z,19.10
2019-01-08T21:12:56.004Z,23.70
2019-01-08T21:15:26.400Z,24.02
2019-01-08T21:17:56.863Z,23.60
2019-01-08T21:20:27.328Z,21.20
2019-01-08T21:22:57.642Z,21.73
2019-01-08T21:25:28.001Z,20.82
2019-01-08T21:27:59.907Z,15.50
2019-01-08T21:30:30.332Z,20.55
2019-01-08T21:33:00.823Z,24.30
2019-01-08T21:35:31.543Z,17.20
2019-01-08T21:38:01.847Z,16.80
2019-01-08T21:40:33.070Z,16.70
2019-01-08T21:43:04.122Z,18.10
2019-01-08T21:45:34.532Z,14.55
2019-01-08T21:48:06.161Z,19.00
2019-01-08T21:50:36.671Z,18.52
2019-01-08T21:53:07.108Z,16.05
2019-01-08T21:55:38.505Z,22.05
2019-01-08T21:58:08.896Z,14.83
2019-01-08T22:00:41.148Z,15.80
2019-01-08T22:03:11.969Z,18.05
2019-01-08T22:05:47.079Z,14.35
2019-01-08T22:08:20.146Z,15.80
2019-01-08T22:10:51.897Z,23.50
2019-01-08T22:13:22.879Z,18.20
2019-01-08T22:15:58.850Z,14.90
2019-01-08T22:18:33.121Z,16.85
2019-01-08T22:21:06.846Z,15.25
2019-01-08T22:23:37.228Z,17.73
2019-01-08T22:26:07.862Z,14.85
2019-01-08T22:28:38.533Z,17.17
2019-01-08T22:31:09.280Z,14.05
2019-01-08T22:33:39.582Z,16.45
2019-01-08T22:36:09.927Z,17.07
2019-01-08T22:38:40.255Z,12.43
2019-01-08T22:41:10.794Z,5.95
2019-01-08T22:43:42.925Z,3.05
2019-01-08T22:46:13.232Z,1.27
2019-01-08T22:48:43.578Z,6.65
2019-01-08T22:51:14.018Z,5.25
2019-01-08T22:53:44.354Z,8.30
2019-01-08T22:56:14.815Z,7.22
2019-01-08T22:58:46.107Z,8.63
2019-01-08T23:01:22.032Z,8.23
2019-01-08T23:03:52.386Z,9.75
2019-01-08T23:06:22.742Z,12.07
2019-01-08T23:08:53.344Z,9.53
2019-01-08T23:11:23.877Z,7.92
2019-01-08T23:13:54.411Z,12.80
2019-01-08T23:16:24.807Z,15.72
2019-01-08T23:18:55.386Z,13.98
2019-01-08T23:21:26.064Z,12.05
2019-01-08T23:23:56.543Z,16.77
2019-01-08T23:26:27.047Z,16.60
2019-01-08T23:28:57.364Z,11.55
2019-01-08T23:31:28.931Z,4.78
2019-01-08T23:33:59.306Z,1.35
2019-01-08T23:36:29.714Z,0.40
2019-01-08T23:39:01.239Z,2.10
2019-01-08T23:41:32.791Z,1.42
2019-01-08T23:44:04.806Z,0.90
2019-01-08T23:46:35.267Z,1.20
2019-01-08T23:49:06.723Z,0.68
2019-01-08T23:51:37.179Z,3.60
2019-01-08T23:54:08.995Z,2.83
2019-01-08T23:56:40.522Z,4.22
2019-01-08T23:59:10.883Z,3.95
